sensor_id;sensor_type;location;lat;lon;timestamp;pressure;altitude;pressure_sealevel;temperature;humidity
73516;BME280;61763;51.416;5.442;2023-02-05T00:00:14;103647.97;;;6.40;100.00
73516;BME280;61763;51.416;5.442;2023-02-05T00:02:40;103636.38;;;6.41;100.00
73516;BME280;61763;51.416;5.442;2023-02-05T00:05:06;103619.41;;;6.42;100.00
73516;BME280;61763;51.416;5.442;2023-02-05T00:07:31;103624.81;;;6.47;100.00
73516;BME280;61763;51.416;5.442;2023-02-05T00:09:56;103624.75;;;6.41;100.00
73516;BME280;61763;51.416;5.442;2023-02-05T00:12:22;103627.41;;;6.38;100.00
73516;BME280;61763;51.416;5.442;2023-02-05T00:14:47;103616.75;;;6.44;100.00
73516;BME280;61763;51.416;5.442;2023-02-05T00:17:12;103631.03;;;6.43;100.00
73516;BME280;61763;51.416;5.442;2023-02-05T00:19:38;103623.00;;;6.44;100.00
73516;BME280;61763;51.416;5.442;2023-02-05T00:22:03;103613.19;;;6.43;100.00
73516;BME280;61763;51.416;5.442;2023-02-05T00:24:29;103611.44;;;6.50;100.00
73516;BME280;61763;51.416;5.442;2023-02-05T00:26:54;103610.66;;;6.60;100.00
73516;BME280;61763;51.416;5.442;2023-02-05T00:29:20;103597.16;;;6.51;100.00
73516;BME280;61763;51.416;5.442;2023-02-05T00:31:46;103599.81;;;6.48;100.00
73516;BME280;61763;51.416;5.442;2023-02-05T00:34:14;103590.06;;;6.58;100.00
73516;BME280;61763;51.416;5.442;2023-02-05T00:36:39;103588.25;;;6.55;100.00
73516;BME280;61763;51.416;5.442;2023-02-05T00:39:05;103583.78;;;6.56;100.00
73516;BME280;61763;51.416;5.442;2023-02-05T00:41:30;103588.19;;;6.52;100.00
73516;BME280;61763;51.416;5.442;2023-02-05T00:43:56;103570.34;;;6.53;100.00
73516;BME280;61763;51.416;5.442;2023-02-05T00:46:21;103566.72;;;6.49;100.00
73516;BME280;61763;51.416;5.442;2023-02-05T00:48:46;103573.88;;;6.48;100.00
73516;BME280;61763;51.416;5.442;2023-02-05T00:51:12;103566.69;;;6.46;100.00
73516;BME280;61763;51.416;5.442;2023-02-05T00:53:37;103570.28;;;6.46;100.00
73516;BME280;61763;51.416;5.442;2023-02-05T00:56:03;103561.34;;;6.51;100.00
73516;BME280;61763;51.416;5.442;2023-02-05T00:58:28;103570.28;;;6.46;100.00
73516;BME280;61763;51.416;5.442;2023-02-05T01:00:56;103561.34;;;6.49;100.00
73516;BME280;61763;51.416;5.442;2023-02-05T01:03:21;103569.38;;;6.46;100.00
73516;BME280;61763;51.416;5.442;2023-02-05T01:05:47;103572.09;;;6.52;100.00
73516;BME280;61763;51.416;5.442;2023-02-05T01:08:12;103566.72;;;6.51;100.00
73516;BME280;61763;51.416;5.442;2023-02-05T01:10:43;103568.50;;;6.48;100.00
73516;BME280;61763;51.416;5.442;2023-02-05T01:13:09;103577.44;;;6.49;100.00
73516;BME280;61763;51.416;5.442;2023-02-05T01:15:34;103556.94;;;6.54;100.00
73516;BME280;61763;51.416;5.442;2023-02-05T01:17:59;103570.31;;;6.49;100.00
73516;BME280;61763;51.416;5.442;2023-02-05T01:20:25;103572.06;;;6.47;100.00
73516;BME280;61763;51.416;5.442;2023-02-05T01:22:51;103561.31;;;6.44;100.00
73516;BME280;61763;51.416;5.442;2023-02-05T01:25:17;103567.63;;;6.48;100.00
73516;BME280;61763;51.416;5.442;2023-02-05T01:27:42;103557.75;;;6.45;100.00
73516;BME280;61763;51.416;5.442;2023-02-05T01:30:08;103570.25;;;6.43;100.00
73516;BME280;61763;51.416;5.442;2023-02-05T01:32:36;103569.38;;;6.46;100.00
73516;BME280;61763;51.416;5.442;2023-02-05T01:35:01;103568.56;;;6.55;100.00
73516;BME280;61763;51.416;5.442;2023-02-05T01:37:27;103581.91;;;6.47;100.00
73516;BME280;61763;51.416;5.442;2023-02-05T01:39:52;103589.97;;;6.50;100.00
73516;BME280;61763;51.416;5.442;2023-02-05T01:42:26;103575.69;;;6.51;100.00
73516;BME280;61763;51.416;5.442;2023-02-05T01:47:50;103573.94;;;6.55;100.00
73516;BME280;61763;51.416;5.442;2023-02-05T01:50:19;103574.84;;;6.54;100.00
73516;BME280;61763;51.416;5.442;2023-02-05T01:52:46;103569.47;;;6.54;100.00
73516;BME280;61763;51.416;5.442;2023-02-05T01:55:12;103572.09;;;6.52;100.00
73516;BME280;61763;51.416;5.442;2023-02-05T01:57:38;103581.94;;;6.50;100.00
73516;BME280;61763;51.416;5.442;2023-02-05T02:00:21;103584.59;;;6.47;100.00
73516;BME280;61763;51.416;5.442;2023-02-05T02:02:47;103585.50;;;6.51;100.00
73516;BME280;61763;51.416;5.442;2023-02-05T02:05:15;103586.44;;;6.54;100.00
73516;BME280;61763;51.416;5.442;2023-02-05T02:07:41;103569.38;;;6.46;100.00
73516;BME280;61763;51.416;5.442;2023-02-05T02:10:10;103572.94;;;6.45;100.00
73516;BME280;61763;51.416;5.442;2023-02-05T02:12:40;103584.53;;;6.42;100.00
73516;BME280;61763;51.416;5.442;2023-02-05T02:15:11;103577.44;;;6.49;100.00
73516;BME280;61763;51.416;5.442;2023-02-05T02:17:40;103560.44;;;6.45;100.00
73516;BME280;61763;51.416;5.442;2023-02-05T02:20:11;103562.22;;;6.45;100.00
73516;BME280;61763;51.416;5.442;2023-02-05T02:25:47;103547.78;;;6.32;100.00
73516;BME280;61763;51.416;5.442;2023-02-05T02:28:36;103565.69;;;6.35;100.00
73516;BME280;61763;51.416;5.442;2023-02-05T02:33:41;103573.66;;;6.30;100.00
73516;BME280;61763;51.416;5.442;2023-02-05T02:39:25;103552.28;;;6.36;100.00
73516;BME280;61763;51.416;5.442;2023-02-05T02:44:43;103552.16;;;6.27;100.00
73516;BME280;61763;51.416;5.442;2023-02-05T02:47:18;103546.81;;;6.28;100.00
73516;BME280;61763;51.416;5.442;2023-02-05T02:49:51;103549.44;;;6.21;100.00
73516;BME280;61763;51.416;5.442;2023-02-05T02:52:20;103556.59;;;6.22;100.00
73516;BME280;61763;51.416;5.442;2023-02-05T02:54:48;103547.59;;;6.17;100.00
73516;BME280;61763;51.416;5.442;2023-02-05T02:57:17;103532.38;;;6.14;100.00
73516;BME280;61763;51.416;5.442;2023-02-05T02:59:45;103536.81;;;6.12;100.00
73516;BME280;61763;51.416;5.442;2023-02-05T03:02:12;103533.28;;;6.16;100.00
73516;BME280;61763;51.416;5.442;2023-02-05T03:04:42;103545.81;;;6.16;100.00
73516;BME280;61763;51.416;5.442;2023-02-05T03:09:55;103527.81;;;6.05;100.00
73516;BME280;61763;51.416;5.442;2023-02-05T03:12:24;103542.09;;;6.04;100.00
73516;BME280;61763;51.416;5.442;2023-02-05T03:14:50;103536.75;;;6.06;100.00
73516;BME280;61763;51.416;5.442;2023-02-05T03:17:17;103526.88;;;6.02;100.00
73516;BME280;61763;51.416;5.442;2023-02-05T03:19:55;103533.16;;;6.04;100.00
73516;BME280;61763;51.416;5.442;2023-02-05T03:22:21;103523.25;;;5.98;100.00
73516;BME280;61763;51.416;5.442;2023-02-05T03:24:48;103520.53;;;5.96;100.00
73516;BME280;61763;51.416;5.442;2023-02-05T03:27:14;103531.22;;;5.93;100.00
73516;BME280;61763;51.416;5.442;2023-02-05T03:29:40;103522.34;;;5.97;100.00
73516;BME280;61763;51.416;5.442;2023-02-05T03:35:06;103526.72;;;5.92;100.00
73516;BME280;61763;51.416;5.442;2023-02-05T03:43:15;103520.38;;;5.84;100.00
73516;BME280;61763;51.416;5.442;2023-02-05T03:46:07;103530.16;;;5.79;100.00
73516;BME280;61763;51.416;5.442;2023-02-05T03:51:34;103534.53;;;5.74;100.00
73516;BME280;61763;51.416;5.442;2023-02-05T03:54:04;103542.59;;;5.77;100.00
73516;BME280;61763;51.416;5.442;2023-02-05T03:59:08;103541.63;;;5.70;100.00
73516;BME280;61763;51.416;5.442;2023-02-05T04:01:34;103539.84;;;5.71;100.00
73516;BME280;61763;51.416;5.442;2023-02-05T04:04:00;103537.22;;;5.74;100.00
73516;BME280;61763;51.416;5.442;2023-02-05T04:06:25;103538.00;;;5.67;100.00
73516;BME280;61763;51.416;5.442;2023-02-05T04:08:52;103546.03;;;5.65;100.00
73516;BME280;61763;51.416;5.442;2023-02-05T04:11:17;103545.16;;;5.68;100.00
73516;BME280;61763;51.416;5.442;2023-02-05T04:13:42;103547.03;;;5.72;100.00
73516;BME280;61763;51.416;5.442;2023-02-05T04:16:08;103557.72;;;5.70;100.00
73516;BME280;61763;51.416;5.442;2023-02-05T04:18:33;103565.78;;;5.73;100.00
73516;BME280;61763;51.416;5.442;2023-02-05T04:20:59;103563.97;;;5.72;100.00
73516;BME280;61763;51.416;5.442;2023-02-05T04:23:25;103567.50;;;5.68;100.00
73516;BME280;61763;51.416;5.442;2023-02-05T04:25:52;103571.22;;;5.78;100.00
73516;BME280;61763;51.416;5.442;2023-02-05T04:28:18;103569.25;;;5.66;100.00
73516;BME280;61763;51.416;5.442;2023-02-05T04:30:43;103569.25;;;5.65;100.00
73516;BME280;61763;51.416;5.442;2023-02-05T04:33:09;103565.72;;;5.67;100.00
73516;BME280;61763;51.416;5.442;2023-02-05T04:35:34;103568.34;;;5.64;100.00
73516;BME280;61763;51.416;5.442;2023-02-05T04:38:00;103557.59;;;5.59;100.00
73516;BME280;61763;51.416;5.442;2023-02-05T04:40:25;103551.34;;;5.62;100.00
73516;BME280;61763;51.416;5.442;2023-02-05T04:42:50;103553.13;;;5.61;100.00
73516;BME280;61763;51.416;5.442;2023-02-05T04:45:16;103558.44;;;5.58;100.00
73516;BME280;61763;51.416;5.442;2023-02-05T04:47:41;103561.09;;;5.57;100.00
73516;BME280;61763;51.416;5.442;2023-02-05T04:50:07;103556.66;;;5.59;100.00
73516;BME280;61763;51.416;5.442;2023-02-05T04:52:32;103550.44;;;5.60;100.00
73516;BME280;61763;51.416;5.442;2023-02-05T04:54:59;103555.78;;;5.58;100.00
73516;BME280;61763;51.416;5.442;2023-02-05T04:57:24;103565.50;;;5.53;100.00
73516;BME280;61763;51.416;5.442;2023-02-05T04:59:50;103557.44;;;5.50;100.00
73516;BME280;61763;51.416;5.442;2023-02-05T05:02:16;103554.72;;;5.49;100.00
73516;BME280;61763;51.416;5.442;2023-02-05T05:04:42;103547.56;;;5.48;100.00
73516;BME280;61763;51.416;5.442;2023-02-05T05:07:07;103555.66;;;5.49;100.00
73516;BME280;61763;51.416;5.442;2023-02-05T05:09:35;103558.44;;;5.57;100.00
73516;BME280;61763;51.416;5.442;2023-02-05T05:12:01;103549.53;;;5.59;100.00
73516;BME280;61763;51.416;5.442;2023-02-05T05:14:26;103551.25;;;5.54;100.00
73516;BME280;61763;51.416;5.442;2023-02-05T05:16:52;103549.47;;;5.56;100.00
73516;BME280;61763;51.416;5.442;2023-02-05T05:19:19;103540.56;;;5.57;100.00
73516;BME280;61763;51.416;5.442;2023-02-05T05:21:44;103541.47;;;5.58;100.00
73516;BME280;61763;51.416;5.442;2023-02-05T05:24:10;103536.19;;;5.63;100.00
73516;BME280;61763;51.416;5.442;2023-02-05T05:26:36;103529.94;;;5.64;100.00
73516;BME280;61763;51.416;5.442;2023-02-05T05:29:08;103535.41;;;5.71;100.00
73516;BME280;61763;51.416;5.442;2023-02-05T05:31:34;103530.03;;;5.70;100.00
73516;BME280;61763;51.416;5.442;2023-02-05T05:33:59;103536.31;;;5.73;100.00
73516;BME280;61763;51.416;5.442;2023-02-05T05:36:25;103533.69;;;5.76;100.00
73516;BME280;61763;51.416;5.442;2023-02-05T05:38:51;103540.81;;;5.74;100.00
73516;BME280;61763;51.416;5.442;2023-02-05T05:41:22;103531.00;;;5.76;100.00
73516;BME280;61763;51.416;5.442;2023-02-05T05:44:07;103539.94;;;5.78;100.00
73516;BME280;61763;51.416;5.442;2023-02-05T05:46:34;103530.09;;;5.76;100.00
73516;BME280;61763;51.416;5.442;2023-02-05T05:49:01;103537.22;;;5.74;100.00
73516;BME280;61763;51.416;5.442;2023-02-05T05:51:29;103535.47;;;5.76;100.00
73516;BME280;61763;51.416;5.442;2023-02-05T05:53:55;103528.28;;;5.73;100.00
73516;BME280;61763;51.416;5.442;2023-02-05T05:56:21;103527.41;;;5.74;100.00
73516;BME280;61763;51.416;5.442;2023-02-05T05:58:47;103528.38;;;5.81;100.00
73516;BME280;61763;51.416;5.442;2023-02-05T06:01:14;103529.16;;;5.74;100.00
73516;BME280;61763;51.416;5.442;2023-02-05T06:03:40;103531.78;;;5.69;100.00
73516;BME280;61763;51.416;5.442;2023-02-05T06:06:07;103538.97;;;5.70;100.00
73516;BME280;61763;51.416;5.442;2023-02-05T06:08:33;103538.94;;;5.69;100.00
73516;BME280;61763;51.416;5.442;2023-02-05T06:10:59;103523.72;;;5.66;100.00
73516;BME280;61763;51.416;5.442;2023-02-05T06:13:24;103524.50;;;5.59;100.00
73516;BME280;61763;51.416;5.442;2023-02-05T06:15:50;103531.69;;;5.61;100.00
73516;BME280;61763;51.416;5.442;2023-02-05T06:18:19;103532.63;;;5.65;100.00
73516;BME280;61763;51.416;5.442;2023-02-05T06:20:45;103525.53;;;5.69;100.00
73516;BME280;61763;51.416;5.442;2023-02-05T06:23:10;103530.88;;;5.67;100.00
73516;BME280;61763;51.416;5.442;2023-02-05T06:25:36;103530.91;;;5.69;100.00
73516;BME280;61763;51.416;5.442;2023-02-05T06:28:02;103525.53;;;5.69;100.00
73516;BME280;61763;51.416;5.442;2023-02-05T06:30:27;103532.72;;;5.71;100.00
73516;BME280;61763;51.416;5.442;2023-02-05T06:32:52;103534.44;;;5.66;100.00
73516;BME280;61763;51.416;5.442;2023-02-05T06:35:18;103535.31;;;5.67;100.00
73516;BME280;61763;51.416;5.442;2023-02-05T06:37:43;103535.41;;;5.70;100.00
73516;BME280;61763;51.416;5.442;2023-02-05T06:40:09;103540.75;;;5.70;100.00
73516;BME280;61763;51.416;5.442;2023-02-05T06:42:35;103536.25;;;5.69;100.00
73516;BME280;61763;51.416;5.442;2023-02-05T06:45:00;103537.16;;;5.71;100.00
73516;BME280;61763;51.416;5.442;2023-02-05T06:47:26;103537.16;;;5.69;100.00
73516;BME280;61763;51.416;5.442;2023-02-05T06:49:52;103555.84;;;5.63;100.00
73516;BME280;61763;51.416;5.442;2023-02-05T06:52:17;103550.56;;;5.69;100.00
73516;BME280;61763;51.416;5.442;2023-02-05T06:54:44;103572.84;;;5.67;100.00
73516;BME280;61763;51.416;5.442;2023-02-05T06:57:10;103580.84;;;5.65;100.00
73516;BME280;61763;51.416;5.442;2023-02-05T06:59:35;103582.63;;;5.63;100.00
73516;BME280;61763;51.416;5.442;2023-02-05T07:02:01;103579.81;;;5.54;100.00
73516;BME280;61763;51.416;5.442;2023-02-05T07:04:26;103594.91;;;5.49;100.00
73516;BME280;61763;51.416;5.442;2023-02-05T07:06:58;103599.28;;;5.42;100.00
73516;BME280;61763;51.416;5.442;2023-02-05T07:09:24;103620.59;;;5.36;100.00
73516;BME280;61763;51.416;5.442;2023-02-05T07:11:50;103620.38;;;5.22;100.00
73516;BME280;61763;51.416;5.442;2023-02-05T07:14:15;103641.69;;;5.14;100.00
73516;BME280;61763;51.416;5.442;2023-02-05T07:16:41;103650.47;;;5.07;100.00
73516;BME280;61763;51.416;5.442;2023-02-05T07:19:06;103655.81;;;5.05;100.00
73516;BME280;61763;51.416;5.442;2023-02-05T07:21:32;103653.09;;;5.04;100.00
73516;BME280;61763;51.416;5.442;2023-02-05T07:23:58;103661.94;;;5.00;100.00
73516;BME280;61763;51.416;5.442;2023-02-05T07:26:24;103668.91;;;4.91;100.00
73516;BME280;61763;51.416;5.442;2023-02-05T07:28:49;103667.16;;;4.92;100.00
73516;BME280;61763;51.416;5.442;2023-02-05T07:31:16;103689.44;;;4.91;100.00
73516;BME280;61763;51.416;5.442;2023-02-05T07:33:43;103685.84;;;4.89;100.00
73516;BME280;61763;51.416;5.442;2023-02-05T07:36:12;103678.78;;;4.94;100.00
73516;BME280;61763;51.416;5.442;2023-02-05T07:38:40;103703.75;;;4.95;100.00
73516;BME280;61763;51.416;5.442;2023-02-05T07:41:07;103697.53;;;4.94;100.00
73516;BME280;61763;51.416;5.442;2023-02-05T07:43:33;103704.63;;;4.92;100.00
73516;BME280;61763;51.416;5.442;2023-02-05T07:46:02;103713.59;;;4.96;100.00
73516;BME280;61763;51.416;5.442;2023-02-05T07:48:29;103723.47;;;4.98;100.00
73516;BME280;61763;51.416;5.442;2023-02-05T07:50:54;103719.91;;;4.98;100.00
73516;BME280;61763;51.416;5.442;2023-02-05T07:53:20;103730.72;;;5.04;100.00
73516;BME280;61763;51.416;5.442;2023-02-05T07:55:46;103723.59;;;5.04;100.00
73516;BME280;61763;51.416;5.442;2023-02-05T07:58:13;103736.06;;;5.02;100.00
73516;BME280;61763;51.416;5.442;2023-02-05T08:00:38;103736.97;;;5.04;100.00
73516;BME280;61763;51.416;5.442;2023-02-05T08:03:04;103737.78;;;5.00;100.00
73516;BME280;61763;51.416;5.442;2023-02-05T08:05:30;103744.81;;;4.94;100.00
73516;BME280;61763;51.416;5.442;2023-02-05T08:07:55;103737.56;;;4.88;100.00
73516;BME280;61763;51.416;5.442;2023-02-05T08:10:21;103750.94;;;4.88;100.00
73516;BME280;61763;51.416;5.442;2023-02-05T08:12:46;103751.88;;;4.91;100.00
73516;BME280;61763;51.416;5.442;2023-02-05T08:15:12;103759.16;;;4.99;100.00
73516;BME280;61763;51.416;5.442;2023-02-05T08:17:40;103749.56;;;5.10;100.00
73516;BME280;61763;51.416;5.442;2023-02-05T08:20:06;103747.25;;;5.29;100.00
73516;BME280;61763;51.416;5.442;2023-02-05T08:22:38;103752.53;;;5.25;100.00
73516;BME280;61763;51.416;5.442;2023-02-05T08:25:06;103757.03;;;5.26;100.00
73516;BME280;61763;51.416;5.442;2023-02-05T08:27:33;103765.00;;;5.23;100.00
73516;BME280;61763;51.416;5.442;2023-02-05T08:29:58;103763.28;;;5.27;100.00
73516;BME280;61763;51.416;5.442;2023-02-05T08:32:24;103762.38;;;5.26;100.00
73516;BME280;61763;51.416;5.442;2023-02-05T08:34:50;103763.41;;;5.33;100.00
73516;BME280;61763;51.416;5.442;2023-02-05T08:37:15;103757.38;;;5.45;100.00
73516;BME280;61763;51.416;5.442;2023-02-05T08:39:40;103767.28;;;5.51;100.00
73516;BME280;61763;51.416;5.442;2023-02-05T08:42:06;103778.03;;;5.52;100.00
73516;BME280;61763;51.416;5.442;2023-02-05T08:44:31;103761.13;;;5.58;100.00
73516;BME280;61763;51.416;5.442;2023-02-05T08:46:57;103759.34;;;5.57;100.00
73516;BME280;61763;51.416;5.442;2023-02-05T08:49:22;103763.69;;;5.50;100.00
73516;BME280;61763;51.416;5.442;2023-02-05T08:51:48;103775.47;;;5.60;100.00
73516;BME280;61763;51.416;5.442;2023-02-05T08:54:14;103775.41;;;5.55;100.00
73516;BME280;61763;51.416;5.442;2023-02-05T08:56:44;103787.91;;;5.56;100.00
73516;BME280;61763;51.416;5.442;2023-02-05T08:59:10;103779.84;;;5.55;100.00
73516;BME280;61763;51.416;5.442;2023-02-05T09:01:36;103779.75;;;5.50;100.00
73516;BME280;61763;51.416;5.442;2023-02-05T09:04:10;103784.22;;;5.50;100.00
73516;BME280;61763;51.416;5.442;2023-02-05T09:06:36;103783.38;;;5.51;100.00
73516;BME280;61763;51.416;5.442;2023-02-05T09:09:02;103790.53;;;5.53;100.00
73516;BME280;61763;51.416;5.442;2023-02-05T09:11:29;103786.22;;;5.61;100.00
73516;BME280;61763;51.416;5.442;2023-02-05T09:13:56;103792.53;;;5.67;100.00
73516;BME280;61763;51.416;5.442;2023-02-05T09:16:22;103784.63;;;5.73;100.00
73516;BME280;61763;51.416;5.442;2023-02-05T09:18:47;103785.69;;;5.83;100.00
73516;BME280;61763;51.416;5.442;2023-02-05T09:21:13;103779.53;;;5.90;100.00
73516;BME280;61763;51.416;5.442;2023-02-05T09:23:39;103784.03;;;5.91;100.00
73516;BME280;61763;51.416;5.442;2023-02-05T09:26:05;103787.75;;;5.99;100.00
73516;BME280;61763;51.416;5.442;2023-02-05T09:28:35;103787.84;;;6.02;100.00
73516;BME280;61763;51.416;5.442;2023-02-05T09:31:09;103778.13;;;6.12;100.00
73516;BME280;61763;51.416;5.442;2023-02-05T09:33:35;103788.78;;;6.07;100.00
73516;BME280;61763;51.416;5.442;2023-02-05T09:36:08;103791.53;;;6.10;100.00
73516;BME280;61763;51.416;5.442;2023-02-05T09:38:35;103787.94;;;6.08;100.00
73516;BME280;61763;51.416;5.442;2023-02-05T09:41:06;103779.09;;;6.16;100.00
73516;BME280;61763;51.416;5.442;2023-02-05T09:49:34;103784.69;;;6.32;100.00
73516;BME280;61763;51.416;5.442;2023-02-05T09:55:03;103787.47;;;6.40;100.00
73516;BME280;61763;51.416;5.442;2023-02-05T09:59:57;103799.19;;;6.44;100.00
73516;BME280;61763;51.416;5.442;2023-02-05T10:04:54;103790.03;;;6.31;100.00
73516;BME280;61763;51.416;5.442;2023-02-05T10:11:07;103785.63;;;6.33;100.00
73516;BME280;61763;51.416;5.442;2023-02-05T10:27:23;103775.19;;;6.56;100.00
73516;BME280;61763;51.416;5.442;2023-02-05T10:30:18;103776.22;;;6.66;100.00
73516;BME280;61763;51.416;5.442;2023-02-05T10:32:58;103774.47;;;6.71;100.00
73516;BME280;61763;51.416;5.442;2023-02-05T10:35:32;103775.47;;;6.78;100.00
73516;BME280;61763;51.416;5.442;2023-02-05T10:38:15;103775.63;;;6.92;97.42
73516;BME280;61763;51.416;5.442;2023-02-05T10:40:42;103775.63;;;6.92;98.02
73516;BME280;61763;51.416;5.442;2023-02-05T10:43:40;103792.78;;;7.03;96.46
73516;BME280;61763;51.416;5.442;2023-02-05T10:46:15;103770.44;;;7.07;95.74
73516;BME280;61763;51.416;5.442;2023-02-05T10:51:20;103777.63;;;7.07;96.82
73516;BME280;61763;51.416;5.442;2023-02-05T10:53:48;103783.66;;;6.90;99.26
73516;BME280;61763;51.416;5.442;2023-02-05T10:56:16;103774.50;;;6.73;100.00
73516;BME280;61763;51.416;5.442;2023-02-05T10:58:51;103783.06;;;6.44;100.00
73516;BME280;61763;51.416;5.442;2023-02-05T11:01:23;103777.66;;;6.41;100.00
73516;BME280;61763;51.416;5.442;2023-02-05T11:04:09;103768.91;;;6.53;100.00
73516;BME280;61763;51.416;5.442;2023-02-05T11:06:40;103778.88;;;6.64;100.00
73516;BME280;61763;51.416;5.442;2023-02-05T11:11:57;103793.47;;;6.87;99.67
73516;BME280;61763;51.416;5.442;2023-02-05T11:14:29;103804.22;;;6.87;98.03
73516;BME280;61763;51.416;5.442;2023-02-05T11:16:55;103802.50;;;6.93;96.96
73516;BME280;61763;51.416;5.442;2023-02-05T11:19:24;103794.50;;;6.96;95.20
73516;BME280;61763;51.416;5.442;2023-02-05T11:22:00;103793.75;;;7.08;94.80
73516;BME280;61763;51.416;5.442;2023-02-05T11:24:30;103799.22;;;7.17;94.24
73516;BME280;61763;51.416;5.442;2023-02-05T11:29:41;103801.84;;;7.11;91.35
73516;BME280;61763;51.416;5.442;2023-02-05T11:35:25;103790.03;;;6.97;93.04
73516;BME280;61763;51.416;5.442;2023-02-05T11:38:08;103783.84;;;7.04;92.85
73516;BME280;61763;51.416;5.442;2023-02-05T11:40:35;103792.97;;;7.18;92.77
73516;BME280;61763;51.416;5.442;2023-02-05T11:43:06;103804.41;;;7.05;92.18
73516;BME280;61763;51.416;5.442;2023-02-05T11:45:34;103796.50;;;7.14;90.55
73516;BME280;61763;51.416;5.442;2023-02-05T11:48:05;103792.06;;;7.21;90.52
73516;BME280;61763;51.416;5.442;2023-02-05T11:50:44;103796.59;;;7.24;88.69
73516;BME280;61763;51.416;5.442;2023-02-05T11:53:14;103783.19;;;7.27;89.63
73516;BME280;61763;51.416;5.442;2023-02-05T11:55:42;103764.47;;;7.37;87.89
73516;BME280;61763;51.416;5.442;2023-02-05T11:58:29;103760.00;;;7.33;86.14
73516;BME280;61763;51.416;5.442;2023-02-05T12:01:03;103762.72;;;7.40;85.96
73516;BME280;61763;51.416;5.442;2023-02-05T12:03:31;103762.63;;;7.29;85.17
73516;BME280;61763;51.416;5.442;2023-02-05T12:06:19;103779.66;;;7.32;84.97
73516;BME280;61763;51.416;5.442;2023-02-05T12:08:53;103778.81;;;7.36;85.21
73516;BME280;61763;51.416;5.442;2023-02-05T12:14:11;103771.69;;;7.40;83.51
73516;BME280;61763;51.416;5.442;2023-02-05T12:17:10;103776.13;;;7.35;84.64
73516;BME280;61763;51.416;5.442;2023-02-05T12:19:49;103791.44;;;7.45;84.19
73516;BME280;61763;51.416;5.442;2023-02-05T12:22:32;103799.47;;;7.41;81.51
73516;BME280;61763;51.416;5.442;2023-02-05T12:25:12;103788.72;;;7.39;82.92
73516;BME280;61763;51.416;5.442;2023-02-05T12:41:49;103786.81;;;7.29;80.85
73516;BME280;61763;51.416;5.442;2023-02-05T12:44:43;103805.66;;;7.35;81.70
73516;BME280;61763;51.416;5.442;2023-02-05T12:53:30;103790.47;;;7.37;80.52
73516;BME280;61763;51.416;5.442;2023-02-05T12:56:03;103786.91;;;7.40;80.43
73516;BME280;61763;51.416;5.442;2023-02-05T12:58:37;103790.63;;;7.52;80.54
73516;BME280;61763;51.416;5.442;2023-02-05T13:01:19;103794.97;;;7.41;80.82
73516;BME280;61763;51.416;5.442;2023-02-05T13:03:55;103810.22;;;7.42;79.79
73516;BME280;61763;51.416;5.442;2023-02-05T13:06:30;103790.47;;;7.39;81.42
73516;BME280;61763;51.416;5.442;2023-02-05T13:09:07;103780.75;;;7.53;80.95
73516;BME280;61763;51.416;5.442;2023-02-05T13:11:52;103792.44;;;7.58;80.53
73516;BME280;61763;51.416;5.442;2023-02-05T13:14:24;103796.94;;;7.61;80.16
73516;BME280;61763;51.416;5.442;2023-02-05T13:16:59;103804.97;;;7.56;80.13
73516;BME280;61763;51.416;5.442;2023-02-05T13:19:30;103805.84;;;7.53;79.67
73516;BME280;61763;51.416;5.442;2023-02-05T13:22:00;103799.63;;;7.61;79.27
73516;BME280;61763;51.416;5.442;2023-02-05T13:24:54;103802.41;;;7.68;78.97
73516;BME280;61763;51.416;5.442;2023-02-05T13:27:47;103810.34;;;7.56;76.19
73516;BME280;61763;51.416;5.442;2023-02-05T13:30:45;103811.13;;;7.44;75.38
73516;BME280;61763;51.416;5.442;2023-02-05T13:33:15;103804.13;;;7.60;76.51
73516;BME280;61763;51.416;5.442;2023-02-05T13:39:09;103806.84;;;7.63;76.73
73516;BME280;61763;51.416;5.442;2023-02-05T14:00:27;103815.75;;;7.58;76.42
73516;BME280;61763;51.416;5.442;2023-02-05T14:02:56;103830.97;;;7.56;75.75
73516;BME280;61763;51.416;5.442;2023-02-05T14:05:50;103835.34;;;7.49;75.87
73516;BME280;61763;51.416;5.442;2023-02-05T14:08:21;103843.38;;;7.43;76.34
73516;BME280;61763;51.416;5.442;2023-02-05T14:11:02;103828.19;;;7.48;76.89
73516;BME280;61763;51.416;5.442;2023-02-05T14:13:31;103831.72;;;7.42;77.42
73516;BME280;61763;51.416;5.442;2023-02-05T14:26:47;103848.22;;;6.98;79.20
73516;BME280;61763;51.416;5.442;2023-02-05T14:29:45;103851.00;;;7.07;80.14
73516;BME280;61763;51.416;5.442;2023-02-05T14:35:32;103849.66;;;7.48;80.81
73516;BME280;61763;51.416;5.442;2023-02-05T14:40:40;103857.81;;;7.54;78.85
73516;BME280;61763;51.416;5.442;2023-02-05T14:43:21;103852.34;;;7.45;79.87
73516;BME280;61763;51.416;5.442;2023-02-05T14:45:50;103855.97;;;7.50;79.06
73516;BME280;61763;51.416;5.442;2023-02-05T14:48:32;103862.16;;;7.40;80.42
73516;BME280;61763;51.416;5.442;2023-02-05T14:51:12;103855.78;;;7.34;80.27
73516;BME280;61763;51.416;5.442;2023-02-05T14:53:52;103863.69;;;7.19;80.62
73516;BME280;61763;51.416;5.442;2023-02-05T14:56:25;103861.75;;;7.06;79.54
73516;BME280;61763;51.416;5.442;2023-02-05T14:59:20;103860.72;;;6.97;81.56
73516;BME280;61763;51.416;5.442;2023-02-05T15:01:48;103853.59;;;6.98;81.22
73516;BME280;61763;51.416;5.442;2023-02-05T15:04:44;103869.47;;;6.82;81.00
73516;BME280;61763;51.416;5.442;2023-02-05T15:07:20;103860.38;;;6.73;81.45
73516;BME280;61763;51.416;5.442;2023-02-05T15:10:02;103873.81;;;6.74;81.98
73516;BME280;61763;51.416;5.442;2023-02-05T15:12:54;103864.81;;;6.68;82.47
73516;BME280;61763;51.416;5.442;2023-02-05T15:15:35;103862.09;;;6.66;82.55
73516;BME280;61763;51.416;5.442;2023-02-05T15:18:25;103869.22;;;6.64;83.79
73516;BME280;61763;51.416;5.442;2023-02-05T15:20:54;103892.50;;;6.66;84.18